Time;durP1;ratioP1;P1;durP2;ratioP2;P2;SDS_P1;SDS_P2;PMS_P1;PMS_P2;Temp;Humidity;BMP_temperature;BMP_pressure;BME280_temperature;BME280_humidity;BME280_pressure;Samples;Min_cycle;Max_cycle;Signal;HPM_P1;HPM_P2
2022/10/13 00:01:12;;;;;;;6.80;6.25;;;;;;;8.16;79.59;94186.47;5089451;28;20043;-34
2022/10/13 00:03:39;;;;;;;3.22;2.92;;;;;;;8.10;79.19;94185.03;5089925;28;20024;-33
2022/10/13 00:06:06;;;;;;;3.80;3.50;;;;;;;7.96;79.04;94169.66;5076260;28;20411;-34
2022/10/13 00:08:31;;;;;;;2.85;2.67;;;;;;;7.90;79.61;94188.97;5072022;28;20056;-34
2022/10/13 00:10:59;;;;;;;2.88;2.67;;;;;;;7.70;80.16;94174.88;5093943;28;20023;-34
2022/10/13 00:13:25;;;;;;;3.90;3.67;;;;;;;7.67;80.10;94186.94;5093476;28;20032;-34
2022/10/13 00:15:51;;;;;;;2.30;2.13;;;;;;;7.57;80.06;94192.75;5093332;28;20058;-34
2022/10/13 00:18:16;;;;;;;4.20;3.63;;;;;;;7.46;80.06;94195.56;5090728;28;20063;-34
2022/10/13 00:20:44;;;;;;;1.02;1.02;;;;;;;7.29;80.78;94194.94;5093716;28;20024;-33
2022/10/13 00:23:10;;;;;;;1.90;1.80;;;;;;;7.50;80.97;94187.03;5093624;28;20024;-34
2022/10/13 00:25:41;;;;;;;2.08;1.90;;;;;;;7.65;79.80;94190.16;5089507;28;20407;-34
2022/10/13 00:28:06;;;;;;;4.75;3.88;;;;;;;7.35;80.12;94183.91;5086637;28;20131;-33
2022/10/13 00:30:35;;;;;;;2.95;2.75;;;;;;;7.46;80.14;94181.06;5088992;28;20539;-34
2022/10/13 00:33:01;;;;;;;3.10;2.85;;;;;;;7.47;79.69;94179.84;5093449;28;20157;-33
2022/10/13 00:35:26;;;;;;;3.15;2.95;;;;;;;7.48;79.13;94178.56;5093375;28;20504;-34
2022/10/13 00:37:52;;;;;;;2.85;2.65;;;;;;;7.42;79.21;94175.13;5092933;28;20024;-34
2022/10/13 00:40:18;;;;;;;0.82;0.82;;;;;;;7.18;79.26;94167.53;5093004;28;20024;-34
2022/10/13 00:42:43;;;;;;;2.63;2.42;;;;;;;7.16;79.50;94167.31;5074665;28;20060;-34
2022/10/13 00:45:26;;;;;;;3.58;3.30;;;;;;;7.01;79.98;94158.66;5093016;28;20031;-34
2022/10/13 00:47:55;;;;;;;2.75;2.42;;;;;;;7.08;79.60;94157.38;5092376;28;20503;-34
2022/10/13 00:50:32;;;;;;;3.42;3.13;;;;;;;7.08;79.89;94162.88;5092593;28;20062;-33
2022/10/13 00:52:58;;;;;;;3.38;3.17;;;;;;;7.10;78.97;94166.59;5074409;28;20040;-34
2022/10/13 00:55:27;;;;;;;2.10;1.63;;;;;;;7.09;78.83;94167.09;5092753;28;20411;-34
2022/10/13 00:57:54;;;;;;;1.77;1.65;;;;;;;7.05;79.30;94158.38;5092156;28;20032;-34
2022/10/13 01:00:21;;;;;;;3.70;3.15;;;;;;;6.86;79.98;94172.69;5093278;28;20119;-34
2022/10/13 01:02:47;;;;;;;1.52;1.42;;;;;;;6.90;80.35;94166.97;5092356;28;20089;-34
2022/10/13 01:05:13;;;;;;;2.08;1.98;;;;;;;6.97;80.32;94171.16;5092290;28;20027;-34
2022/10/13 01:07:38;;;;;;;1.85;1.75;;;;;;;6.91;80.87;94170.47;5092596;28;20024;-34
2022/10/13 01:10:04;;;;;;;3.00;2.80;;;;;;;7.01;80.39;94172.38;5092422;28;20030;-34
2022/10/13 01:12:44;;;;;;;1.42;1.38;;;;;;;7.04;80.49;94168.59;5092624;28;20089;-34
2022/10/13 01:15:15;;;;;;;4.60;3.05;;;;;;;7.10;80.41;94163.84;5088553;28;20488;-33
2022/10/13 01:17:52;;;;;;;1.33;1.33;;;;;;;7.18;80.36;94162.03;5091797;28;20541;-33
2022/10/13 01:20:52;;;;;;;2.33;2.15;;;;;;;7.16;80.93;94163.81;5086007;28;20035;-34
2022/10/13 01:23:23;;;;;;;2.42;2.25;;;;;;;7.04;81.62;94157.63;5068975;28;20413;-33
2022/10/13 01:26:11;;;;;;;1.27;1.23;;;;;;;6.99;82.67;94158.44;5073450;28;20032;-34
2022/10/13 01:28:58;;;;;;;0.57;0.57;;;;;;;7.13;82.97;94162.06;5079614;28;20032;-34
2022/10/13 01:31:29;;;;;;;1.80;1.58;;;;;;;7.14;83.52;94155.34;5086855;28;20035;-34
2022/10/13 01:34:18;;;;;;;2.78;2.67;;;;;;;7.25;82.90;94153.28;5091535;28;20032;-33
2022/10/13 01:37:11;;;;;;;0.40;0.40;;;;;;;7.28;82.30;94154.22;5071657;28;20031;-34
2022/10/13 01:39:49;;;;;;;0.73;0.73;;;;;;;7.30;82.60;94146.97;5069260;28;20097;-34
2022/10/13 01:42:23;;;;;;;0.50;0.50;;;;;;;7.28;82.44;94140.50;5088970;28;20034;-34
2022/10/13 01:44:51;;;;;;;3.03;2.33;;;;;;;7.32;82.46;94147.19;5074062;28;20028;-34
2022/10/13 01:47:18;;;;;;;1.10;1.10;;;;;;;7.46;82.40;94146.09;5086792;28;20112;-34
2022/10/13 01:49:44;;;;;;;1.90;1.80;;;;;;;7.39;82.34;94119.19;5091446;28;20055;-34
2022/10/13 01:52:14;;;;;;;3.38;3.08;;;;;;;7.48;82.04;94140.09;5071467;28;20479;-34
2022/10/13 01:54:39;;;;;;;2.00;1.90;;;;;;;7.26;82.12;94124.53;5068424;28;20085;-34
2022/10/13 01:57:41;;;;;;;1.23;1.23;;;;;;;7.34;81.83;94136.44;5087226;28;20489;-34
2022/10/13 02:00:08;;;;;;;1.90;1.80;;;;;;;7.24;82.23;94132.53;5069742;28;20123;-34
2022/10/13 02:02:42;;;;;;;2.38;2.17;;;;;;;7.35;82.15;94134.44;5091338;28;20039;-34
2022/10/13 02:05:11;;;;;;;2.72;2.60;;;;;;;7.16;82.72;94123.38;5073520;28;20035;-34
2022/10/13 02:07:45;;;;;;;3.13;2.67;;;;;;;7.28;83.07;94135.75;5091040;28;20480;-34
2022/10/13 02:10:48;;;;;;;1.67;1.58;;;;;;;7.25;82.98;94131.28;5073916;28;20092;-34
2022/10/13 02:13:20;;;;;;;3.05;2.85;;;;;;;7.19;82.57;94133.31;5002499;28;20030;-33
2022/10/13 02:15:49;;;;;;;2.42;2.35;;;;;;;7.04;83.31;94137.69;5077982;28;20037;-34
2022/10/13 02:18:16;;;;;;;2.25;2.15;;;;;;;7.03;83.80;94131.44;5090487;28;20039;-34
2022/10/13 02:20:43;;;;;;;3.03;2.67;;;;;;;7.20;83.00;94147.78;5073752;28;20031;-33
2022/10/13 02:23:11;;;;;;;8.48;7.80;;;;;;;6.99;83.28;94116.50;5073390;28;20024;-33
2022/10/13 02:25:37;;;;;;;2.63;2.42;;;;;;;7.31;82.63;94137.50;5091015;28;20019;-34
2022/10/13 02:28:03;;;;;;;1.85;1.75;;;;;;;7.30;81.01;94144.22;5091378;28;20523;-33
2022/10/13 02:30:30;;;;;;;5.10;4.38;;;;;;;7.34;80.21;94136.44;5069247;28;20043;-34
2022/10/13 02:32:56;;;;;;;4.72;3.38;;;;;;;7.19;80.79;94138.09;5087607;28;20035;-33
2022/10/13 02:35:21;;;;;;;1.27;1.27;;;;;;;7.23;80.25;94142.06;5090363;28;20020;-33
2022/10/13 02:37:47;;;;;;;3.03;2.75;;;;;;;7.10;80.12;94135.66;5090085;28;20016;-33
2022/10/13 02:40:12;;;;;;;3.05;2.85;;;;;;;6.88;81.43;94131.03;5090141;28;20032;-33
2022/10/13 02:42:38;;;;;;;2.47;2.30;;;;;;;6.75;81.46;94133.59;5089121;28;20106;-34
2022/10/13 02:45:04;;;;;;;2.92;2.70;;;;;;;6.80;81.26;94125.34;5091071;28;20078;-33
2022/10/13 02:47:30;;;;;;;0.80;0.80;;;;;;;6.75;81.04;94125.38;5091363;28;20105;-34
2022/10/13 02:49:55;;;;;;;4.22;3.90;;;;;;;6.69;81.52;94125.38;5091237;28;20027;-34
2022/10/13 02:52:21;;;;;;;2.35;2.15;;;;;;;6.66;81.05;94128.41;5090908;28;20522;-34
2022/10/13 02:54:46;;;;;;;3.38;3.13;;;;;;;6.72;80.88;94126.38;5088815;28;20024;-33
2022/10/13 02:57:12;;;;;;;2.05;1.92;;;;;;;6.82;80.31;94125.56;5090596;28;20734;-34
2022/10/13 02:59:37;;;;;;;3.75;2.63;;;;;;;6.58;80.96;94124.72;5090194;28;20407;-33
2022/10/13 03:02:03;;;;;;;1.00;1.00;;;;;;;6.60;81.10;94122.22;5090267;28;20505;-34
2022/10/13 03:04:28;;;;;;;2.92;2.72;;;;;;;6.53;81.48;94117.25;5090164;28;20118;-34
2022/10/13 03:06:53;;;;;;;2.17;2.08;;;;;;;6.50;81.63;94110.03;5090056;28;20027;-34
2022/10/13 03:09:19;;;;;;;2.53;2.22;;;;;;;6.43;82.05;94116.06;5088429;28;20059;-33
2022/10/13 03:11:44;;;;;;;1.50;1.50;;;;;;;6.58;81.66;94119.22;5090032;28;20020;-33
2022/10/13 03:14:10;;;;;;;2.40;1.95;;;;;;;6.55;81.85;94123.72;5090114;28;20024;-33
2022/10/13 03:16:35;;;;;;;1.50;1.40;;;;;;;6.54;82.48;94116.75;5090160;28;20028;-33
2022/10/13 03:19:01;;;;;;;2.55;2.35;;;;;;;6.69;81.11;94113.69;5086632;28;20106;-34
2022/10/13 03:21:26;;;;;;;0.80;0.80;;;;;;;6.75;80.26;94117.91;5089768;28;20055;-34
2022/10/13 03:23:52;;;;;;;2.15;2.05;;;;;;;6.64;80.58;94114.47;5090259;28;20031;-33
2022/10/13 03:26:17;;;;;;;3.05;2.05;;;;;;;6.50;81.03;94121.00;5086328;28;20028;-33
2022/10/13 03:28:47;;;;;;;3.80;2.13;;;;;;;6.48;81.33;94118.78;5086029;28;20025;-34
2022/10/13 03:31:13;;;;;;;2.33;1.60;;;;;;;6.55;81.15;94114.75;5089618;28;20024;-34
2022/10/13 03:33:39;;;;;;;4.10;2.22;;;;;;;6.56;80.56;94119.72;5089289;28;20023;-34
2022/10/13 03:36:04;;;;;;;1.30;1.20;;;;;;;6.39;81.04;94107.34;5089584;28;20031;-33
2022/10/13 03:38:32;;;;;;;0.95;0.95;;;;;;;6.43;81.81;94121.56;5089920;28;20020;-34
2022/10/13 03:41:03;;;;;;;3.72;2.70;;;;;;;6.42;82.04;94122.78;5088437;28;20101;-33
2022/10/13 03:43:29;;;;;;;1.52;1.48;;;;;;;6.47;81.46;94119.28;5088850;28;20536;-34
2022/10/13 03:45:58;;;;;;;1.40;1.40;;;;;;;6.33;81.21;94117.59;5088527;28;20151;-33
2022/10/13 03:48:24;;;;;;;2.63;2.40;;;;;;;6.18;81.49;94111.66;5090068;28;20020;-34
2022/10/13 03:50:49;;;;;;;1.65;1.20;;;;;;;6.13;81.78;94113.91;5089843;28;20027;-34
2022/10/13 03:53:15;;;;;;;1.38;1.27;;;;;;;6.24;80.98;94123.38;5089117;28;20099;-33
2022/10/13 03:55:40;;;;;;;2.13;2.03;;;;;;;6.35;80.75;94115.84;5090065;28;20050;-34
2022/10/13 03:58:06;;;;;;;0.57;0.57;;;;;;;6.37;80.45;94118.06;5089644;28;20518;-34
2022/10/13 04:00:34;;;;;;;2.50;1.75;;;;;;;6.34;80.32;94110.88;5089906;28;20016;-33
2022/10/13 04:02:59;;;;;;;1.13;1.13;;;;;;;6.34;80.85;94114.34;5088191;28;20544;-34
2022/10/13 04:05:25;;;;;;;0.75;0.75;;;;;;;6.29;80.39;94120.59;5084713;28;20158;-33
2022/10/13 04:07:50;;;;;;;2.22;2.05;;;;;;;6.47;80.30;94122.03;5089266;28;20581;-33
2022/10/13 04:10:16;;;;;;;6.32;4.63;;;;;;;6.51;79.91;94122.50;5089448;28;20099;-34
2022/10/13 04:12:41;;;;;;;5.28;4.88;;;;;;;6.51;79.71;94117.00;5089414;28;20035;-33
2022/10/13 04:15:07;;;;;;;5.85;5.43;;;;;;;6.38;80.36;94123.06;5089166;28;20032;-33
2022/10/13 04:17:33;;;;;;;4.10;3.78;;;;;;;6.28;80.83;94121.84;5089579;28;20020;-34
2022/10/13 04:19:58;;;;;;;4.47;3.30;;;;;;;6.26;81.40;94118.84;5084363;28;20020;-33
2022/10/13 04:22:24;;;;;;;4.05;3.75;;;;;;;6.33;82.08;94117.59;5089825;28;20020;-34
2022/10/13 04:24:49;;;;;;;2.72;2.20;;;;;;;6.40;81.46;94117.06;5089392;28;20039;-34
2022/10/13 04:27:15;;;;;;;3.08;2.88;;;;;;;6.32;81.89;94110.63;5089903;28;20475;-33
2022/10/13 04:29:41;;;;;;;3.63;3.33;;;;;;;6.28;83.08;94110.16;5089825;28;20095;-33
2022/10/13 04:32:06;;;;;;;4.32;4.03;;;;;;;6.28;83.41;94113.63;5089924;28;20169;-34
2022/10/13 04:34:32;;;;;;;2.63;2.42;;;;;;;6.25;84.05;94106.41;5089775;28;20020;-34
2022/10/13 04:36:57;;;;;;;0.82;0.82;;;;;;;6.44;83.45;94107.31;5089212;28;20028;-33
2022/10/13 04:39:23;;;;;;;1.35;1.25;;;;;;;6.51;82.88;94117.00;5085344;28;20024;-34
2022/10/13 04:41:49;;;;;;;0.40;0.40;;;;;;;6.37;83.66;94109.84;5085365;28;20035;-34
2022/10/13 04:44:15;;;;;;;1.13;1.13;;;;;;;6.35;84.18;94104.09;5089298;28;20027;-33
2022/10/13 04:46:40;;;;;;;0.60;0.60;;;;;;;6.29;84.42;94111.63;5088987;28;20020;-33
2022/10/13 04:49:06;;;;;;;1.88;1.70;;;;;;;6.36;84.14;94105.63;5089511;28;20031;-34
2022/10/13 04:51:31;;;;;;;2.55;1.85;;;;;;;6.36;83.66;94087.16;5089415;28;20020;-33
2022/10/13 04:53:58;;;;;;;0.85;0.85;;;;;;;6.38;82.87;94081.94;5090388;28;20039;-34
2022/10/13 04:56:24;;;;;;;0.30;0.30;;;;;;;6.53;83.18;94103.53;5075086;28;20030;-33
2022/10/13 04:58:49;;;;;;;1.70;1.63;;;;;;;6.49;83.30;94103.06;5092994;28;20123;-33
2022/10/13 05:01:20;;;;;;;2.50;2.33;;;;;;;6.63;82.66;94099.22;5087256;28;20511;-33
2022/10/13 05:03:46;;;;;;;1.15;1.15;;;;;;;6.64;82.76;94098.75;5092384;28;20071;-33
2022/10/13 05:06:20;;;;;;;2.75;2.55;;;;;;;6.55;83.48;94095.53;5092735;28;20103;-33
2022/10/13 05:08:45;;;;;;;0.57;0.57;;;;;;;6.60;83.49;94097.53;5092706;28;20058;-34
2022/10/13 05:11:11;;;;;;;1.52;1.35;;;;;;;6.61;83.91;94099.00;5092770;28;20589;-34
2022/10/13 05:13:36;;;;;;;0.85;0.85;;;;;;;6.55;84.25;94088.06;5092693;28;20383;-33
2022/10/13 05:16:07;;;;;;;0.50;0.50;;;;;;;6.67;84.18;94102.47;5074177;28;20574;-34
2022/10/13 05:18:33;;;;;;;2.03;1.92;;;;;;;6.86;83.96;94106.81;5092590;28;20020;-33
2022/10/13 05:21:07;;;;;;;2.50;2.25;;;;;;;6.87;84.59;94110.31;5092706;28;20031;-33
2022/10/13 05:23:33;;;;;;;2.83;2.47;;;;;;;7.03;84.72;94103.22;5092343;28;20032;-34
2022/10/13 05:26:07;;;;;;;2.60;2.25;;;;;;;7.10;84.66;94113.69;5088475;28;20020;-34
2022/10/13 05:28:33;;;;;;;8.07;2.63;;;;;;;7.10;83.90;94106.19;5088892;28;20021;-34
2022/10/13 05:31:14;;;;;;;1.90;1.80;;;;;;;7.19;83.88;94111.34;5091954;28;20027;-34
2022/10/13 05:33:40;;;;;;;3.72;3.28;;;;;;;7.28;83.12;94111.03;5091964;28;20064;-34
2022/10/13 05:36:11;;;;;;;5.00;3.80;;;;;;;7.29;83.76;94117.28;5092183;28;20100;-34
2022/10/13 05:38:37;;;;;;;2.33;2.13;;;;;;;7.37;84.12;94113.47;5089831;28;20062;-34
2022/10/13 05:41:04;;;;;;;3.28;2.40;;;;;;;7.46;84.53;94118.63;5091959;28;20030;-34
2022/10/13 05:43:31;;;;;;;2.50;2.30;;;;;;;7.53;84.56;94123.56;5092456;28;20442;-33
2022/10/13 05:45:57;;;;;;;3.95;3.65;;;;;;;7.60;84.72;94131.25;5073395;28;20029;-34
2022/10/13 05:48:23;;;;;;;5.47;5.07;;;;;;;7.46;84.40;94132.38;5074080;28;20035;-33
2022/10/13 05:50:48;;;;;;;3.53;3.28;;;;;;;7.53;83.46;94142.81;5091085;28;20020;-34
2022/10/13 05:53:14;;;;;;;11.00;6.10;;;;;;;7.63;82.99;94140.47;5091884;28;20023;-34
2022/10/13 05:55:39;;;;;;;2.50;2.35;;;;;;;7.74;82.63;94142.38;5091242;28;20049;-34
2022/10/13 05:58:04;;;;;;;2.03;1.92;;;;;;;7.87;82.45;94143.25;5091378;28;20035;-33
2022/10/13 06:00:30;;;;;;;2.42;2.28;;;;;;;7.88;82.10;94142.00;5091844;28;20032;-34
2022/10/13 06:03:15;;;;;;;7.05;5.25;;;;;;;8.05;82.16;94144.59;5091292;28;20036;-34
2022/10/13 06:05:42;;;;;;;4.32;4.13;;;;;;;8.18;82.16;94139.19;5090778;28;20028;-34
2022/10/13 06:08:08;;;;;;;4.32;3.15;;;;;;;8.28;81.44;94134.84;5090808;28;20503;-34
2022/10/13 06:10:34;;;;;;;3.15;2.97;;;;;;;8.40;81.73;94138.97;5091530;28;20105;-34
2022/10/13 06:12:59;;;;;;;3.92;3.63;;;;;;;8.54;81.63;94148.06;5072444;28;20106;-34
2022/10/13 06:15:25;;;;;;;3.63;2.70;;;;;;;8.62;81.74;94143.47;5091685;28;20091;-34
2022/10/13 06:17:50;;;;;;;4.32;4.03;;;;;;;8.73;81.59;94143.31;5090534;28;20016;-34
2022/10/13 06:20:16;;;;;;;4.55;4.18;;;;;;;8.85;80.89;94144.69;5091336;28;20043;-34
2022/10/13 06:22:41;;;;;;;5.30;2.30;;;;;;;8.92;80.76;94131.03;5091310;28;20012;-34
2022/10/13 06:25:07;;;;;;;1.95;1.85;;;;;;;9.21;80.50;94145.16;5073138;28;20012;-34
2022/10/13 06:27:33;;;;;;;1.38;1.27;;;;;;;9.40;79.61;94146.63;5091578;28;20462;-34
2022/10/13 06:29:58;;;;;;;1.42;1.33;;;;;;;9.58;79.05;94143.09;5090955;28;20095;-34
2022/10/13 06:32:24;;;;;;;5.78;1.98;;;;;;;9.62;78.07;94151.06;5091359;28;20469;-34
2022/10/13 06:34:49;;;;;;;2.38;2.22;;;;;;;9.56;77.51;94137.38;5091106;28;20102;-34
2022/10/13 06:37:15;;;;;;;1.38;1.38;;;;;;;9.70;77.07;94155.44;5091053;28;20024;-34
2022/10/13 06:39:40;;;;;;;3.13;2.83;;;;;;;9.54;77.21;94152.94;5090360;28;20107;-34
2022/10/13 06:42:06;;;;;;;1.13;0.88;;;;;;;9.65;77.18;94152.78;5091031;28;20411;-34
2022/10/13 06:44:32;;;;;;;0.85;0.85;;;;;;;9.67;77.68;94153.00;5090880;28;20099;-34
2022/10/13 06:46:59;;;;;;;1.52;1.42;;;;;;;9.76;77.63;94145.06;5090850;28;20024;-34
2022/10/13 06:49:25;;;;;;;1.30;1.25;;;;;;;10.01;77.87;94151.16;5073821;28;20023;-34
2022/10/13 06:51:51;;;;;;;2.25;2.13;;;;;;;10.30;76.65;94155.69;5090716;28;20538;-34
2022/10/13 06:54:17;;;;;;;8.27;2.20;;;;;;;10.53;76.23;94151.22;5090450;28;20016;-34
2022/10/13 06:56:43;;;;;;;4.50;3.60;;;;;;;10.78;75.57;94148.22;5090521;28;20028;-34
2022/10/13 06:59:09;;;;;;;2.97;2.75;;;;;;;11.03;75.11;94155.72;5090762;28;20061;-34
2022/10/13 07:01:35;;;;;;;4.95;4.30;;;;;;;11.39;74.36;94148.38;5090787;28;20028;-34
2022/10/13 07:04:00;;;;;;;3.30;2.97;;;;;;;11.94;73.97;94149.13;5090636;28;20027;-34
2022/10/13 07:06:26;;;;;;;1.15;1.15;;;;;;;12.60;73.52;94143.16;5090736;28;20427;-34
2022/10/13 07:08:52;;;;;;;2.70;2.50;;;;;;;13.08;71.34;94149.88;5089890;28;20078;-34
2022/10/13 07:11:17;;;;;;;3.97;2.60;;;;;;;13.34;69.61;94144.06;5090657;28;20507;-34
2022/10/13 07:13:44;;;;;;;1.90;1.73;;;;;;;13.51;69.03;94135.97;5089924;28;20099;-34
2022/10/13 07:16:09;;;;;;;7.93;4.00;;;;;;;13.39;68.19;94145.91;5090523;28;20403;-34
2022/10/13 07:18:35;;;;;;;3.45;2.78;;;;;;;13.30;68.92;94140.88;5089881;28;20024;-34
2022/10/13 07:21:01;;;;;;;2.78;2.13;;;;;;;13.30;69.13;94133.31;5090045;28;20473;-34
2022/10/13 07:23:27;;;;;;;1.60;1.50;;;;;;;13.39;69.23;94134.81;5090501;28;20035;-34
2022/10/13 07:25:55;;;;;;;1.10;1.10;;;;;;;13.41;69.25;94110.03;5089892;28;20024;-34
2022/10/13 07:28:24;;;;;;;2.85;2.65;;;;;;;13.88;69.30;94121.38;5090579;28;20560;-34
2022/10/13 07:30:49;;;;;;;1.85;1.75;;;;;;;14.19;66.74;94113.81;5090049;28;20458;-34
2022/10/13 07:33:15;;;;;;;0.63;0.63;;;;;;;14.50;64.72;94120.84;5090068;28;20054;-34
2022/10/13 07:35:40;;;;;;;1.10;1.00;;;;;;;15.10;63.14;94112.34;5090349;28;20053;-34
2022/10/13 07:38:07;;;;;;;1.20;1.20;;;;;;;15.78;62.66;94111.25;5090390;28;20042;-34
2022/10/13 07:40:33;;;;;;;0.98;0.90;;;;;;;16.45;58.98;94115.53;5090219;28;20034;-34
2022/10/13 07:42:59;;;;;;;0.73;0.73;;;;;;;16.89;57.86;94120.53;5090224;28;20039;-34
2022/10/13 07:45:24;;;;;;;0.88;0.88;;;;;;;17.16;57.13;94113.69;5089968;28;20028;-34
2022/10/13 07:47:50;;;;;;;5.15;2.60;;;;;;;17.56;56.93;94115.47;5089510;28;20024;-34
2022/10/13 07:50:15;;;;;;;0.95;0.95;;;;;;;18.00;56.44;94111.28;5090426;28;20396;-34
2022/10/13 07:52:41;;;;;;;1.45;1.35;;;;;;;18.21;55.14;94110.78;5089872;28;20103;-34
2022/10/13 07:55:07;;;;;;;0.25;0.25;;;;;;;18.46;54.41;94110.56;5089547;28;20024;-34
2022/10/13 07:57:33;;;;;;;0.93;0.93;;;;;;;17.94;53.19;94107.28;5089646;28;20024;-34
2022/10/13 07:59:59;;;;;;;8.82;1.60;;;;;;;18.19;53.86;94110.63;5089719;28;20085;-34
2022/10/13 08:02:25;;;;;;;1.38;1.27;;;;;;;18.07;53.31;94106.91;5084304;28;20032;-34
2022/10/13 08:04:50;;;;;;;1.48;1.17;;;;;;;18.62;53.10;94100.63;5071173;28;20028;-34
2022/10/13 08:07:16;;;;;;;1.00;1.00;;;;;;;19.14;52.16;94100.94;5060424;28;20027;-34
2022/10/13 08:09:42;;;;;;;1.60;1.50;;;;;;;19.17;49.93;94097.69;5086587;28;20040;-34
2022/10/13 08:12:08;;;;;;;1.77;1.67;;;;;;;18.91;50.98;94104.91;5089751;28;20024;-34
2022/10/13 08:14:33;;;;;;;1.08;0.98;;;;;;;19.18;50.33;94093.56;5089755;28;20027;-34
2022/10/13 08:17:00;;;;;;;3.78;2.05;;;;;;;19.56;50.31;94087.94;5089681;28;20020;-34
2022/10/13 08:19:27;;;;;;;1.85;1.25;;;;;;;19.58;50.02;94079.69;5089157;28;20499;-34
2022/10/13 08:21:53;;;;;;;2.90;1.15;;;;;;;19.84;50.07;94094.09;5089540;28;20028;-34
2022/10/13 08:24:19;;;;;;;0.75;0.75;;;;;;;20.43;47.80;94082.78;5089910;28;20016;-34
2022/10/13 08:26:45;;;;;;;1.10;1.10;;;;;;;20.22;48.87;94091.16;5089703;28;20047;-34
2022/10/13 08:29:12;;;;;;;2.00;1.85;;;;;;;20.39;48.76;94077.63;5092087;28;20026;-34
2022/10/13 08:31:37;;;;;;;1.10;1.10;;;;;;;20.67;47.90;94086.47;5093225;28;20081;-35
2022/10/13 08:34:03;;;;;;;0.93;0.93;;;;;;;20.71;47.69;94087.47;5093445;28;20027;-35
2022/10/13 08:36:28;;;;;;;1.30;1.20;;;;;;;20.49;47.67;94079.66;5093238;28;20408;-34
2022/10/13 08:38:53;;;;;;;0.63;0.63;;;;;;;20.50;46.25;94072.69;5093122;28;20020;-34
2022/10/13 08:41:23;;;;;;;1.10;1.05;;;;;;;20.61;46.75;94069.97;5093648;28;20082;-35
2022/10/13 08:43:50;;;;;;;0.80;0.60;;;;;;;20.44;47.05;94073.03;5093116;28;20103;-34
2022/10/13 08:46:26;;;;;;;0.57;0.57;;;;;;;20.99;46.12;94069.69;5093370;28;20031;-34
2022/10/13 08:48:52;;;;;;;0.80;0.80;;;;;;;20.85;44.75;94059.63;5092886;28;20032;-34
2022/10/13 08:51:18;;;;;;;0.45;0.45;;;;;;;20.76;45.33;94058.38;5093426;28;20027;-34
2022/10/13 08:53:45;;;;;;;0.98;0.98;;;;;;;20.61;42.63;94058.03;5090303;28;20094;-34
2022/10/13 08:56:18;;;;;;;2.38;0.80;;;;;;;20.80;44.62;94058.63;5093557;28;20069;-34
2022/10/13 08:58:44;;;;;;;0.45;0.45;;;;;;;21.11;44.61;94059.28;5077762;28;20044;-35
2022/10/13 09:01:10;;;;;;;0.75;0.75;;;;;;;21.28;43.16;94057.53;5074729;28;20517;-34
2022/10/13 09:04:02;;;;;;;0.75;0.75;;;;;;;21.42;41.53;94047.91;5092950;28;20111;-34
2022/10/13 09:06:51;;;;;;;0.98;0.98;;;;;;;21.63;40.70;94049.94;5091534;28;20051;-34
2022/10/13 09:09:17;;;;;;;0.28;0.28;;;;;;;21.78;38.62;94035.41;5092740;28;20048;-35
2022/10/13 09:11:45;;;;;;;0.93;0.93;;;;;;;21.92;39.74;94039.13;5093106;28;20024;-34
2022/10/13 09:14:22;;;;;;;3.03;1.88;;;;;;;21.72;39.79;94043.47;5093096;28;20050;-35
2022/10/13 09:16:48;;;;;;;0.40;0.40;;;;;;;21.61;39.04;94033.66;5092795;28;20030;-34
2022/10/13 09:19:14;;;;;;;2.95;0.47;;;;;;;21.66;39.53;94034.66;5075813;28;20062;-34
2022/10/13 09:21:39;;;;;;;0.85;0.80;;;;;;;22.00;39.59;94039.63;5092451;28;20107;-35
2022/10/13 09:24:07;;;;;;;2.17;1.42;;;;;;;22.32;39.06;94038.03;5092686;28;20020;-34
2022/10/13 09:26:36;;;;;;;0.22;0.22;;;;;;;22.79;38.76;94024.63;5092489;28;20530;-34
2022/10/13 09:29:23;;;;;;;1.20;0.88;;;;;;;22.56;36.20;94014.88;5089948;28;20042;-34
2022/10/13 09:31:49;;;;;;;1.33;1.25;;;;;;;22.71;36.89;94022.09;5092712;28;20016;-34
2022/10/13 09:34:17;;;;;;;4.35;2.13;;;;;;;22.82;36.89;94021.34;5091982;28;20026;-34
2022/10/13 09:36:59;;;;;;;5.87;1.50;;;;;;;22.80;35.70;94029.66;5092729;28;20035;-35
2022/10/13 09:39:25;;;;;;;0.82;0.68;;;;;;;23.14;35.96;94019.63;5092392;28;20442;-35
2022/10/13 09:41:51;;;;;;;0.68;0.68;;;;;;;23.47;37.07;94016.56;5091982;28;20067;-34
2022/10/13 09:44:26;;;;;;;0.40;0.32;;;;;;;24.22;34.24;94018.50;5080207;28;20068;-34
2022/10/13 09:46:54;;;;;;;0.40;0.28;;;;;;;24.90;32.37;93998.72;5075281;28;20016;-34
2022/10/13 09:49:39;;;;;;;0.70;0.70;;;;;;;25.39;32.80;94011.03;5076222;28;20464;-34
2022/10/13 09:52:10;;;;;;;1.33;0.77;;;;;;;25.91;31.73;94009.97;5091932;28;20028;-34
2022/10/13 09:54:45;;;;;;;0.80;0.55;;;;;;;25.95;30.53;94001.66;5091818;28;20028;-34
2022/10/13 09:57:15;;;;;;;0.63;0.63;;;;;;;26.06;31.05;94009.25;5088944;28;20036;-34
2022/10/13 09:59:50;;;;;;;0.45;0.45;;;;;;;26.56;30.26;93988.13;5075175;28;20045;-34
2022/10/13 10:02:34;;;;;;;0.35;0.35;;;;;;;27.36;28.88;93987.97;5091558;28;20043;-35
2022/10/13 10:05:05;;;;;;;0.50;0.40;;;;;;;27.46;29.02;93996.91;5056827;28;20031;-35
2022/10/13 10:07:32;;;;;;;0.77;0.40;;;;;;;28.11;27.84;93980.28;5091802;28;20111;-35
2022/10/13 10:10:04;;;;;;;1.40;0.50;;;;;;;28.00;26.97;93982.03;5091209;28;20114;-35
2022/10/13 10:12:31;;;;;;;0.40;0.40;;;;;;;28.10;26.98;93978.81;5091320;28;20784;-34
2022/10/13 10:14:56;;;;;;;0.77;0.30;;;;;;;28.22;26.37;93979.28;5074199;28;20073;-35
2022/10/13 10:17:48;;;;;;;0.30;0.30;;;;;;;28.20;26.25;93967.81;5091980;28;20479;-35
2022/10/13 10:20:41;;;;;;;0.22;0.22;;;;;;;27.94;27.46;93976.06;5091699;28;20032;-34
2022/10/13 10:23:13;;;;;;;0.25;0.25;;;;;;;28.72;26.81;93966.19;5086822;28;20451;-35
2022/10/13 10:25:43;;;;;;;0.40;0.40;;;;;;;28.72;27.06;93966.91;5072970;28;20511;-35
2022/10/13 10:28:27;;;;;;;0.55;0.55;;;;;;;28.98;25.87;93955.69;5077786;28;20024;-35
2022/10/13 10:31:28;;;;;;;0.40;0.40;;;;;;;28.85;25.32;93948.13;5090788;28;20028;-35
2022/10/13 10:34:31;;;;;;;1.65;1.10;;;;;;;28.33;26.21;93949.84;5087985;28;20035;-35
2022/10/13 10:37:18;;;;;;;0.40;0.40;;;;;;;29.13;26.15;93949.06;5033306;28;20053;-35
2022/10/13 10:40:02;;;;;;;0.65;0.50;;;;;;;29.78;24.36;93937.66;5086483;28;20436;-35
2022/10/13 10:42:52;;;;;;;3.50;0.98;;;;;;;29.83;23.71;93944.94;5089831;28;20111;-35
2022/10/13 10:45:22;;;;;;;0.43;0.43;;;;;;;28.90;23.15;93932.69;5090748;28;20016;-35
2022/10/13 10:47:51;;;;;;;0.40;0.40;;;;;;;28.86;24.26;93921.91;5074321;28;20028;-35
2022/10/13 10:50:17;;;;;;;1.60;0.98;;;;;;;28.71;24.24;93933.47;5067114;28;20043;-34
2022/10/13 10:52:54;;;;;;;4.47;1.00;;;;;;;29.03;24.45;93926.00;5090205;28;20027;-34
2022/10/13 10:55:46;;;;;;;0.32;0.32;;;;;;;29.58;23.04;93926.41;5090882;28;20102;-35
2022/10/13 10:58:21;;;;;;;0.82;0.82;;;;;;;29.14;23.44;93922.84;5046922;28;20097;-35
2022/10/13 11:01:08;;;;;;;0.22;0.22;;;;;;;28.84;24.19;93929.63;5090634;28;20034;-35
2022/10/13 11:03:40;;;;;;;0.50;0.30;;;;;;;29.11;23.61;93923.41;5090020;28;20491;-35
2022/10/13 11:06:11;;;;;;;0.75;0.47;;;;;;;29.34;23.05;93916.38;5070210;28;20031;-35
2022/10/13 11:08:36;;;;;;;0.32;0.32;;;;;;;29.32;23.86;93922.00;5090324;28;20052;-35
2022/10/13 11:11:21;;;;;;;0.30;0.30;;;;;;;29.03;23.28;93912.53;5090653;28;20046;-35
2022/10/13 11:13:55;;;;;;;0.82;0.82;;;;;;;28.32;25.13;93909.38;5090305;28;20031;-34
2022/10/13 11:16:28;;;;;;;0.47;0.47;;;;;;;28.53;24.11;93908.69;5090673;28;20535;-34
2022/10/13 11:18:53;;;;;;;0.10;0.10;;;;;;;28.76;24.00;93900.94;5087659;28;20032;-35
2022/10/13 11:21:19;;;;;;;0.10;0.10;;;;;;;28.63;23.76;93893.41;5088392;28;20089;-35
2022/10/13 11:23:46;;;;;;;5.00;2.00;;;;;;;28.24;24.45;93886.34;5090233;28;20097;-34
2022/10/13 11:26:24;;;;;;;0.40;0.40;;;;;;;27.99;25.10;93881.22;5090221;28;20107;-34
2022/10/13 11:28:50;;;;;;;0.13;0.13;;;;;;;28.01;25.40;93880.53;5089907;28;20016;-35
2022/10/13 11:31:34;;;;;;;0.22;0.22;;;;;;;27.96;25.01;93868.28;5090450;28;20028;-34
2022/10/13 11:34:00;;;;;;;0.30;0.30;;;;;;;27.64;25.57;93876.34;5073580;28;20511;-35
2022/10/13 11:36:30;;;;;;;0.52;0.52;;;;;;;27.36;24.71;93874.56;5090558;28;20111;-35
2022/10/13 11:39:10;;;;;;;0.50;0.40;;;;;;;27.29;25.63;93872.84;5089884;28;20400;-34
2022/10/13 11:42:08;;;;;;;0.88;0.88;;;;;;;27.11;25.32;93872.13;5090277;28;20028;-35
2022/10/13 11:44:55;;;;;;;0.45;0.45;;;;;;;27.08;28.40;93868.50;5087186;28;20047;-35
2022/10/13 11:47:54;;;;;;;2.35;1.52;;;;;;;27.13;30.23;93864.44;5078079;28;20032;-35
2022/10/13 11:50:43;;;;;;;0.95;0.50;;;;;;;27.16;30.32;93874.47;5087866;28;20064;-34